sensor_id;sensor_type;location;lat;lon;timestamp;P1;durP1;ratioP1;P2;durP2;ratioP2
70126;SDS011;57491;42.694;23.314;2022-10-26T00:00:47;11.93;;;6.32;;
70126;SDS011;57491;42.694;23.314;2022-10-26T00:03:14;12.55;;;6.97;;
70126;SDS011;57491;42.694;23.314;2022-10-26T00:05:42;11.63;;;7.10;;
70126;SDS011;57491;42.694;23.314;2022-10-26T00:08:09;12.77;;;7.38;;
70126;SDS011;57491;42.694;23.314;2022-10-26T00:13:05;15.30;;;6.60;;
70126;SDS011;57491;42.694;23.314;2022-10-26T00:15:38;23.13;;;7.55;;
70126;SDS011;57491;42.694;23.314;2022-10-26T00:18:07;15.00;;;5.95;;
70126;SDS011;57491;42.694;23.314;2022-10-26T00:20:34;14.13;;;6.30;;
70126;SDS011;57491;42.694;23.314;2022-10-26T00:23:01;18.70;;;6.53;;
70126;SDS011;57491;42.694;23.314;2022-10-26T00:25:28;18.10;;;7.35;;
70126;SDS011;57491;42.694;23.314;2022-10-26T00:27:55;13.43;;;7.20;;
70126;SDS011;57491;42.694;23.314;2022-10-26T00:30:22;14.87;;;7.00;;
70126;SDS011;57491;42.694;23.314;2022-10-26T00:32:49;12.60;;;5.93;;
70126;SDS011;57491;42.694;23.314;2022-10-26T00:35:18;18.40;;;6.60;;
70126;SDS011;57491;42.694;23.314;2022-10-26T00:37:45;10.93;;;5.78;;
70126;SDS011;57491;42.694;23.314;2022-10-26T00:40:12;15.20;;;6.25;;
70126;SDS011;57491;42.694;23.314;2022-10-26T00:42:39;13.90;;;6.80;;
70126;SDS011;57491;42.694;23.314;2022-10-26T00:45:08;11.60;;;5.97;;
70126;SDS011;57491;42.694;23.314;2022-10-26T00:47:46;13.77;;;6.45;;
70126;SDS011;57491;42.694;23.314;2022-10-26T00:50:18;12.20;;;5.70;;
70126;SDS011;57491;42.694;23.314;2022-10-26T00:52:48;10.77;;;6.65;;
70126;SDS011;57491;42.694;23.314;2022-10-26T00:55:17;11.98;;;6.22;;
70126;SDS011;57491;42.694;23.314;2022-10-26T00:57:47;9.25;;;6.53;;
70126;SDS011;57491;42.694;23.314;2022-10-26T01:00:17;14.43;;;6.43;;
70126;SDS011;57491;42.694;23.314;2022-10-26T01:02:44;13.50;;;7.15;;
70126;SDS011;57491;42.694;23.314;2022-10-26T01:05:13;13.15;;;6.25;;
70126;SDS011;57491;42.694;23.314;2022-10-26T01:07:44;14.98;;;6.93;;
70126;SDS011;57491;42.694;23.314;2022-10-26T01:10:13;12.80;;;6.75;;
70126;SDS011;57491;42.694;23.314;2022-10-26T01:12:40;14.60;;;6.22;;
70126;SDS011;57491;42.694;23.314;2022-10-26T01:15:08;14.20;;;6.50;;
70126;SDS011;57491;42.694;23.314;2022-10-26T01:17:40;14.65;;;6.35;;
70126;SDS011;57491;42.694;23.314;2022-10-26T01:20:20;10.18;;;6.38;;
70126;SDS011;57491;42.694;23.314;2022-10-26T01:23:10;15.60;;;6.47;;
70126;SDS011;57491;42.694;23.314;2022-10-26T01:25:50;17.25;;;6.45;;
70126;SDS011;57491;42.694;23.314;2022-10-26T01:28:36;16.92;;;6.20;;
70126;SDS011;57491;42.694;23.314;2022-10-26T01:31:18;12.73;;;5.68;;
70126;SDS011;57491;42.694;23.314;2022-10-26T01:33:54;15.98;;;6.53;;
70126;SDS011;57491;42.694;23.314;2022-10-26T01:36:28;16.10;;;6.43;;
70126;SDS011;57491;42.694;23.314;2022-10-26T01:39:03;14.40;;;5.70;;
70126;SDS011;57491;42.694;23.314;2022-10-26T01:41:38;14.10;;;6.53;;
70126;SDS011;57491;42.694;23.314;2022-10-26T01:44:13;13.45;;;5.70;;
70126;SDS011;57491;42.694;23.314;2022-10-26T01:46:45;19.45;;;6.72;;
70126;SDS011;57491;42.694;23.314;2022-10-26T01:49:15;12.90;;;6.70;;
70126;SDS011;57491;42.694;23.314;2022-10-26T01:51:47;11.73;;;6.25;;
70126;SDS011;57491;42.694;23.314;2022-10-26T01:56:43;16.33;;;5.80;;
70126;SDS011;57491;42.694;23.314;2022-10-26T02:02:17;13.68;;;5.95;;
70126;SDS011;57491;42.694;23.314;2022-10-26T02:05:09;14.63;;;5.95;;
70126;SDS011;57491;42.694;23.314;2022-10-26T02:07:50;12.38;;;6.10;;
70126;SDS011;57491;42.694;23.314;2022-10-26T02:10:25;9.35;;;5.38;;
70126;SDS011;57491;42.694;23.314;2022-10-26T02:13:00;9.38;;;6.00;;
70126;SDS011;57491;42.694;23.314;2022-10-26T02:15:35;11.38;;;5.78;;
70126;SDS011;57491;42.694;23.314;2022-10-26T02:18:15;11.18;;;6.07;;
70126;SDS011;57491;42.694;23.314;2022-10-26T02:20:53;10.80;;;5.28;;
70126;SDS011;57491;42.694;23.314;2022-10-26T02:23:24;14.10;;;5.90;;
70126;SDS011;57491;42.694;23.314;2022-10-26T02:25:54;9.30;;;5.47;;
70126;SDS011;57491;42.694;23.314;2022-10-26T02:28:24;11.68;;;5.70;;
70126;SDS011;57491;42.694;23.314;2022-10-26T02:30:57;12.27;;;5.50;;
70126;SDS011;57491;42.694;23.314;2022-10-26T02:33:28;13.48;;;6.03;;
70126;SDS011;57491;42.694;23.314;2022-10-26T02:35:59;13.30;;;5.80;;
70126;SDS011;57491;42.694;23.314;2022-10-26T02:38:29;16.08;;;5.60;;
70126;SDS011;57491;42.694;23.314;2022-10-26T02:41:00;10.55;;;6.50;;
70126;SDS011;57491;42.694;23.314;2022-10-26T02:43:29;13.80;;;6.15;;
70126;SDS011;57491;42.694;23.314;2022-10-26T02:46:04;11.27;;;5.70;;
70126;SDS011;57491;42.694;23.314;2022-10-26T02:48:35;15.52;;;6.25;;
70126;SDS011;57491;42.694;23.314;2022-10-26T02:51:04;12.30;;;6.10;;
70126;SDS011;57491;42.694;23.314;2022-10-26T02:53:38;13.65;;;5.85;;
70126;SDS011;57491;42.694;23.314;2022-10-26T02:56:13;11.00;;;5.30;;
70126;SDS011;57491;42.694;23.314;2022-10-26T02:58:45;10.02;;;5.53;;
70126;SDS011;57491;42.694;23.314;2022-10-26T03:01:17;12.05;;;6.93;;
70126;SDS011;57491;42.694;23.314;2022-10-26T03:03:46;11.70;;;6.73;;
70126;SDS011;57491;42.694;23.314;2022-10-26T03:06:19;12.88;;;6.30;;
70126;SDS011;57491;42.694;23.314;2022-10-26T03:08:46;16.30;;;6.28;;
70126;SDS011;57491;42.694;23.314;2022-10-26T03:11:14;12.57;;;6.40;;
70126;SDS011;57491;42.694;23.314;2022-10-26T03:13:41;10.57;;;6.83;;
70126;SDS011;57491;42.694;23.314;2022-10-26T03:16:08;14.53;;;6.33;;
70126;SDS011;57491;42.694;23.314;2022-10-26T03:18:35;19.92;;;6.78;;
70126;SDS011;57491;42.694;23.314;2022-10-26T03:21:04;15.17;;;7.47;;
70126;SDS011;57491;42.694;23.314;2022-10-26T03:23:31;14.82;;;6.68;;
70126;SDS011;57491;42.694;23.314;2022-10-26T03:25:58;13.30;;;7.40;;
70126;SDS011;57491;42.694;23.314;2022-10-26T03:28:26;17.27;;;6.93;;
70126;SDS011;57491;42.694;23.314;2022-10-26T03:30:53;11.75;;;7.10;;
70126;SDS011;57491;42.694;23.314;2022-10-26T03:33:20;14.15;;;7.30;;
70126;SDS011;57491;42.694;23.314;2022-10-26T03:35:52;17.73;;;7.23;;
70126;SDS011;57491;42.694;23.314;2022-10-26T03:38:22;13.05;;;7.35;;
70126;SDS011;57491;42.694;23.314;2022-10-26T03:40:50;11.65;;;7.18;;
70126;SDS011;57491;42.694;23.314;2022-10-26T03:43:17;13.83;;;6.63;;
70126;SDS011;57491;42.694;23.314;2022-10-26T03:45:44;16.80;;;7.40;;
70126;SDS011;57491;42.694;23.314;2022-10-26T03:48:11;15.32;;;7.43;;
70126;SDS011;57491;42.694;23.314;2022-10-26T03:50:38;16.55;;;7.10;;
70126;SDS011;57491;42.694;23.314;2022-10-26T03:53:06;13.63;;;7.38;;
70126;SDS011;57491;42.694;23.314;2022-10-26T03:55:34;17.25;;;8.00;;
70126;SDS011;57491;42.694;23.314;2022-10-26T03:58:02;14.23;;;6.63;;
70126;SDS011;57491;42.694;23.314;2022-10-26T04:00:29;12.93;;;6.67;;
70126;SDS011;57491;42.694;23.314;2022-10-26T04:02:57;13.23;;;6.82;;
70126;SDS011;57491;42.694;23.314;2022-10-26T04:05:25;13.40;;;8.07;;
70126;SDS011;57491;42.694;23.314;2022-10-26T04:07:54;16.15;;;7.90;;
70126;SDS011;57491;42.694;23.314;2022-10-26T04:10:22;14.80;;;7.43;;
70126;SDS011;57491;42.694;23.314;2022-10-26T04:12:53;16.63;;;6.90;;
70126;SDS011;57491;42.694;23.314;2022-10-26T04:15:20;15.68;;;7.88;;
70126;SDS011;57491;42.694;23.314;2022-10-26T04:17:47;23.70;;;9.20;;
70126;SDS011;57491;42.694;23.314;2022-10-26T04:20:20;17.55;;;8.55;;
70126;SDS011;57491;42.694;23.314;2022-10-26T04:22:47;12.50;;;6.83;;
70126;SDS011;57491;42.694;23.314;2022-10-26T04:25:22;18.30;;;7.22;;
70126;SDS011;57491;42.694;23.314;2022-10-26T04:27:49;14.67;;;7.43;;
70126;SDS011;57491;42.694;23.314;2022-10-26T04:30:18;12.43;;;6.93;;
70126;SDS011;57491;42.694;23.314;2022-10-26T04:32:45;15.50;;;7.13;;
70126;SDS011;57491;42.694;23.314;2022-10-26T04:35:12;14.87;;;7.63;;
70126;SDS011;57491;42.694;23.314;2022-10-26T04:37:39;19.30;;;7.95;;
70126;SDS011;57491;42.694;23.314;2022-10-26T04:40:07;15.68;;;6.88;;
70126;SDS011;57491;42.694;23.314;2022-10-26T04:42:41;13.00;;;7.72;;
70126;SDS011;57491;42.694;23.314;2022-10-26T04:45:11;13.43;;;7.22;;
70126;SDS011;57491;42.694;23.314;2022-10-26T04:47:38;21.50;;;7.10;;
70126;SDS011;57491;42.694;23.314;2022-10-26T04:50:07;27.23;;;8.55;;
70126;SDS011;57491;42.694;23.314;2022-10-26T04:52:35;14.38;;;8.07;;
70126;SDS011;57491;42.694;23.314;2022-10-26T04:55:03;13.32;;;7.43;;
70126;SDS011;57491;42.694;23.314;2022-10-26T04:57:31;16.25;;;7.72;;
70126;SDS011;57491;42.694;23.314;2022-10-26T04:59:59;12.90;;;7.35;;
70126;SDS011;57491;42.694;23.314;2022-10-26T05:02:27;13.05;;;6.97;;
70126;SDS011;57491;42.694;23.314;2022-10-26T05:04:55;17.65;;;6.78;;
70126;SDS011;57491;42.694;23.314;2022-10-26T05:07:24;15.25;;;7.55;;
70126;SDS011;57491;42.694;23.314;2022-10-26T05:09:52;17.88;;;7.63;;
70126;SDS011;57491;42.694;23.314;2022-10-26T05:12:20;15.27;;;8.18;;
70126;SDS011;57491;42.694;23.314;2022-10-26T05:14:47;17.53;;;7.00;;
70126;SDS011;57491;42.694;23.314;2022-10-26T05:17:14;18.42;;;7.28;;
70126;SDS011;57491;42.694;23.314;2022-10-26T05:19:42;20.10;;;7.60;;
70126;SDS011;57491;42.694;23.314;2022-10-26T05:22:09;18.98;;;6.68;;
70126;SDS011;57491;42.694;23.314;2022-10-26T05:24:36;14.17;;;6.17;;
70126;SDS011;57491;42.694;23.314;2022-10-26T05:27:03;15.57;;;7.63;;
70126;SDS011;57491;42.694;23.314;2022-10-26T05:29:30;17.45;;;6.95;;
70126;SDS011;57491;42.694;23.314;2022-10-26T05:31:57;12.73;;;7.03;;
70126;SDS011;57491;42.694;23.314;2022-10-26T05:34:24;14.77;;;7.50;;
70126;SDS011;57491;42.694;23.314;2022-10-26T05:36:53;22.02;;;7.38;;
70126;SDS011;57491;42.694;23.314;2022-10-26T05:39:20;17.40;;;7.65;;
70126;SDS011;57491;42.694;23.314;2022-10-26T05:41:47;13.77;;;6.85;;
70126;SDS011;57491;42.694;23.314;2022-10-26T05:44:14;10.15;;;6.97;;
70126;SDS011;57491;42.694;23.314;2022-10-26T05:46:42;11.02;;;6.28;;
70126;SDS011;57491;42.694;23.314;2022-10-26T05:49:09;17.57;;;7.73;;
70126;SDS011;57491;42.694;23.314;2022-10-26T05:51:36;24.67;;;8.37;;
70126;SDS011;57491;42.694;23.314;2022-10-26T05:54:05;24.70;;;8.48;;
70126;SDS011;57491;42.694;23.314;2022-10-26T05:56:33;16.40;;;7.40;;
70126;SDS011;57491;42.694;23.314;2022-10-26T05:59:01;18.00;;;7.15;;
70126;SDS011;57491;42.694;23.314;2022-10-26T06:01:31;27.20;;;9.23;;
70126;SDS011;57491;42.694;23.314;2022-10-26T06:04:12;36.75;;;8.50;;
70126;SDS011;57491;42.694;23.314;2022-10-26T06:06:49;27.65;;;8.30;;
70126;SDS011;57491;42.694;23.314;2022-10-26T06:09:21;15.93;;;7.60;;
70126;SDS011;57491;42.694;23.314;2022-10-26T06:11:49;20.17;;;7.47;;
70126;SDS011;57491;42.694;23.314;2022-10-26T06:14:16;20.45;;;8.23;;
70126;SDS011;57491;42.694;23.314;2022-10-26T06:16:51;12.82;;;6.70;;
70126;SDS011;57491;42.694;23.314;2022-10-26T06:19:42;13.43;;;6.70;;
70126;SDS011;57491;42.694;23.314;2022-10-26T06:22:27;11.73;;;6.50;;
70126;SDS011;57491;42.694;23.314;2022-10-26T06:25:08;11.85;;;6.82;;
70126;SDS011;57491;42.694;23.314;2022-10-26T06:27:51;14.85;;;6.90;;
70126;SDS011;57491;42.694;23.314;2022-10-26T06:30:25;12.98;;;6.50;;
70126;SDS011;57491;42.694;23.314;2022-10-26T06:32:52;14.98;;;6.88;;
70126;SDS011;57491;42.694;23.314;2022-10-26T06:35:24;11.80;;;6.80;;
70126;SDS011;57491;42.694;23.314;2022-10-26T06:38:01;9.75;;;5.80;;
70126;SDS011;57491;42.694;23.314;2022-10-26T06:40:32;12.50;;;6.97;;
70126;SDS011;57491;42.694;23.314;2022-10-26T06:43:02;17.73;;;7.00;;
70126;SDS011;57491;42.694;23.314;2022-10-26T06:45:34;12.90;;;6.53;;
70126;SDS011;57491;42.694;23.314;2022-10-26T06:50:35;11.23;;;6.55;;
70126;SDS011;57491;42.694;23.314;2022-10-26T06:53:05;21.42;;;8.95;;
70126;SDS011;57491;42.694;23.314;2022-10-26T06:55:45;24.20;;;10.10;;
70126;SDS011;57491;42.694;23.314;2022-10-26T06:58:15;15.35;;;7.32;;
70126;SDS011;57491;42.694;23.314;2022-10-26T07:00:44;17.55;;;7.20;;
70126;SDS011;57491;42.694;23.314;2022-10-26T07:03:14;18.63;;;6.47;;
70126;SDS011;57491;42.694;23.314;2022-10-26T07:05:42;13.75;;;6.70;;
70126;SDS011;57491;42.694;23.314;2022-10-26T07:08:10;11.18;;;6.97;;
70126;SDS011;57491;42.694;23.314;2022-10-26T07:13:06;11.40;;;6.38;;
70126;SDS011;57491;42.694;23.314;2022-10-26T07:15:35;10.65;;;6.90;;
70126;SDS011;57491;42.694;23.314;2022-10-26T07:18:03;13.15;;;6.97;;
70126;SDS011;57491;42.694;23.314;2022-10-26T07:20:32;10.90;;;6.05;;
70126;SDS011;57491;42.694;23.314;2022-10-26T07:23:02;15.00;;;7.82;;
70126;SDS011;57491;42.694;23.314;2022-10-26T07:25:31;12.07;;;6.68;;
70126;SDS011;57491;42.694;23.314;2022-10-26T07:32:58;12.52;;;6.10;;
70126;SDS011;57491;42.694;23.314;2022-10-26T07:35:25;9.35;;;6.80;;
70126;SDS011;57491;42.694;23.314;2022-10-26T07:37:55;22.73;;;11.13;;
70126;SDS011;57491;42.694;23.314;2022-10-26T07:40:23;23.83;;;12.55;;
70126;SDS011;57491;42.694;23.314;2022-10-26T07:45:18;17.58;;;9.57;;
70126;SDS011;57491;42.694;23.314;2022-10-26T07:47:48;11.00;;;6.40;;
70126;SDS011;57491;42.694;23.314;2022-10-26T07:50:15;22.63;;;11.00;;
70126;SDS011;57491;42.694;23.314;2022-10-26T07:52:42;19.73;;;9.98;;
70126;SDS011;57491;42.694;23.314;2022-10-26T07:55:09;20.95;;;9.00;;
70126;SDS011;57491;42.694;23.314;2022-10-26T07:57:37;15.57;;;8.15;;
70126;SDS011;57491;42.694;23.314;2022-10-26T08:00:05;13.02;;;8.25;;
70126;SDS011;57491;42.694;23.314;2022-10-26T08:02:34;16.52;;;8.75;;
70126;SDS011;57491;42.694;23.314;2022-10-26T08:07:30;12.35;;;7.30;;
70126;SDS011;57491;42.694;23.314;2022-10-26T08:09:57;11.07;;;5.78;;
70126;SDS011;57491;42.694;23.314;2022-10-26T08:12:25;10.13;;;5.43;;
70126;SDS011;57491;42.694;23.314;2022-10-26T08:14:52;7.65;;;5.13;;
70126;SDS011;57491;42.694;23.314;2022-10-26T08:17:19;8.55;;;4.55;;
70126;SDS011;57491;42.694;23.314;2022-10-26T08:19:47;15.25;;;5.45;;
70126;SDS011;57491;42.694;23.314;2022-10-26T08:24:43;6.38;;;4.68;;
70126;SDS011;57491;42.694;23.314;2022-10-26T08:27:11;8.40;;;4.68;;
70126;SDS011;57491;42.694;23.314;2022-10-26T08:29:39;11.63;;;5.40;;
70126;SDS011;57491;42.694;23.314;2022-10-26T08:37:00;9.25;;;4.32;;
70126;SDS011;57491;42.694;23.314;2022-10-26T08:39:29;12.35;;;5.03;;
70126;SDS011;57491;42.694;23.314;2022-10-26T08:41:57;6.97;;;4.18;;
70126;SDS011;57491;42.694;23.314;2022-10-26T08:44:33;7.07;;;4.40;;
70126;SDS011;57491;42.694;23.314;2022-10-26T08:47:04;9.13;;;4.45;;
70126;SDS011;57491;42.694;23.314;2022-10-26T08:49:39;7.68;;;4.45;;
70126;SDS011;57491;42.694;23.314;2022-10-26T08:52:10;6.43;;;4.53;;
70126;SDS011;57491;42.694;23.314;2022-10-26T08:54:43;11.48;;;4.63;;
70126;SDS011;57491;42.694;23.314;2022-10-26T08:57:16;11.35;;;4.65;;
70126;SDS011;57491;42.694;23.314;2022-10-26T08:59:48;8.25;;;4.13;;
70126;SDS011;57491;42.694;23.314;2022-10-26T09:02:19;9.80;;;4.53;;
70126;SDS011;57491;42.694;23.314;2022-10-26T09:04:48;10.18;;;4.50;;
70126;SDS011;57491;42.694;23.314;2022-10-26T09:09:51;7.18;;;4.80;;
70126;SDS011;57491;42.694;23.314;2022-10-26T09:12:32;11.65;;;5.00;;
70126;SDS011;57491;42.694;23.314;2022-10-26T09:15:10;7.43;;;4.63;;
70126;SDS011;57491;42.694;23.314;2022-10-26T09:17:53;9.70;;;4.18;;
70126;SDS011;57491;42.694;23.314;2022-10-26T09:23:23;8.45;;;4.40;;
70126;SDS011;57491;42.694;23.314;2022-10-26T09:26:01;8.27;;;3.40;;
70126;SDS011;57491;42.694;23.314;2022-10-26T09:28:31;6.03;;;3.85;;
70126;SDS011;57491;42.694;23.314;2022-10-26T09:31:02;4.45;;;3.83;;
70126;SDS011;57491;42.694;23.314;2022-10-26T09:33:30;5.03;;;2.92;;
70126;SDS011;57491;42.694;23.314;2022-10-26T09:36:03;10.00;;;3.83;;
70126;SDS011;57491;42.694;23.314;2022-10-26T09:38:34;5.53;;;2.60;;
70126;SDS011;57491;42.694;23.314;2022-10-26T09:41:08;9.98;;;3.28;;
70126;SDS011;57491;42.694;23.314;2022-10-26T09:43:45;5.13;;;2.90;;
70126;SDS011;57491;42.694;23.314;2022-10-26T09:46:21;6.90;;;3.33;;
70126;SDS011;57491;42.694;23.314;2022-10-26T09:48:53;6.18;;;3.30;;
70126;SDS011;57491;42.694;23.314;2022-10-26T09:51:23;5.13;;;3.65;;
70126;SDS011;57491;42.694;23.314;2022-10-26T09:53:51;8.93;;;4.25;;
70126;SDS011;57491;42.694;23.314;2022-10-26T09:56:21;6.72;;;3.10;;
70126;SDS011;57491;42.694;23.314;2022-10-26T09:58:49;11.23;;;3.55;;
70126;SDS011;57491;42.694;23.314;2022-10-26T10:01:30;8.07;;;4.10;;
70126;SDS011;57491;42.694;23.314;2022-10-26T10:04:08;4.22;;;3.45;;
70126;SDS011;57491;42.694;23.314;2022-10-26T10:06:42;5.72;;;2.65;;
70126;SDS011;57491;42.694;23.314;2022-10-26T10:09:11;6.03;;;4.50;;
70126;SDS011;57491;42.694;23.314;2022-10-26T10:11:42;11.65;;;4.82;;
70126;SDS011;57491;42.694;23.314;2022-10-26T10:14:13;6.25;;;3.22;;
70126;SDS011;57491;42.694;23.314;2022-10-26T10:16:48;7.90;;;3.22;;
70126;SDS011;57491;42.694;23.314;2022-10-26T10:19:20;6.55;;;2.90;;
70126;SDS011;57491;42.694;23.314;2022-10-26T10:21:49;7.18;;;2.60;;
70126;SDS011;57491;42.694;23.314;2022-10-26T10:24:21;6.05;;;2.67;;
70126;SDS011;57491;42.694;23.314;2022-10-26T10:27:01;9.48;;;3.88;;
70126;SDS011;57491;42.694;23.314;2022-10-26T10:29:31;6.32;;;3.50;;
70126;SDS011;57491;42.694;23.314;2022-10-26T10:32:00;3.33;;;2.88;;
70126;SDS011;57491;42.694;23.314;2022-10-26T10:34:29;8.00;;;3.90;;
70126;SDS011;57491;42.694;23.314;2022-10-26T10:36:57;8.43;;;3.55;;
70126;SDS011;57491;42.694;23.314;2022-10-26T10:39:30;7.72;;;3.92;;
70126;SDS011;57491;42.694;23.314;2022-10-26T10:42:03;9.55;;;3.53;;
70126;SDS011;57491;42.694;23.314;2022-10-26T10:44:33;6.30;;;3.00;;
70126;SDS011;57491;42.694;23.314;2022-10-26T10:47:00;6.93;;;3.60;;
70126;SDS011;57491;42.694;23.314;2022-10-26T10:49:29;7.25;;;3.80;;
70126;SDS011;57491;42.694;23.314;2022-10-26T10:51:58;7.15;;;3.60;;
70126;SDS011;57491;42.694;23.314;2022-10-26T10:54:26;7.18;;;3.50;;
70126;SDS011;57491;42.694;23.314;2022-10-26T10:56:56;5.68;;;3.20;;
70126;SDS011;57491;42.694;23.314;2022-10-26T10:59:52;8.85;;;4.10;;
70126;SDS011;57491;42.694;23.314;2022-10-26T11:02:41;6.13;;;3.40;;
70126;SDS011;57491;42.694;23.314;2022-10-26T11:05:30;4.00;;;3.10;;
70126;SDS011;57491;42.694;23.314;2022-10-26T11:08:16;5.00;;;3.33;;
70126;SDS011;57491;42.694;23.314;2022-10-26T11:10:49;5.40;;;3.35;;
70126;SDS011;57491;42.694;23.314;2022-10-26T11:13:19;7.82;;;3.15;;
70126;SDS011;57491;42.694;23.314;2022-10-26T11:15:53;4.53;;;3.10;;
70126;SDS011;57491;42.694;23.314;2022-10-26T11:18:25;4.15;;;3.08;;
70126;SDS011;57491;42.694;23.314;2022-10-26T11:20:59;7.55;;;3.83;;
70126;SDS011;57491;42.694;23.314;2022-10-26T11:23:31;4.05;;;3.30;;
70126;SDS011;57491;42.694;23.314;2022-10-26T11:26:05;3.53;;;3.20;;
70126;SDS011;57491;42.694;23.314;2022-10-26T11:28:39;4.82;;;3.20;;
70126;SDS011;57491;42.694;23.314;2022-10-26T11:31:15;7.35;;;3.90;;
70126;SDS011;57491;42.694;23.314;2022-10-26T11:33:48;3.97;;;3.33;;
70126;SDS011;57491;42.694;23.314;2022-10-26T11:36:22;5.57;;;3.33;;
70126;SDS011;57491;42.694;23.314;2022-10-26T11:38:53;5.03;;;3.78;;
70126;SDS011;57491;42.694;23.314;2022-10-26T11:41:28;3.67;;;3.38;;
70126;SDS011;57491;42.694;23.314;2022-10-26T11:44:01;4.95;;;3.25;;
70126;SDS011;57491;42.694;23.314;2022-10-26T11:46:38;7.97;;;3.70;;
70126;SDS011;57491;42.694;23.314;2022-10-26T11:49:10;6.07;;;4.43;;
70126;SDS011;57491;42.694;23.314;2022-10-26T11:51:43;3.65;;;3.35;;
70126;SDS011;57491;42.694;23.314;2022-10-26T11:54:18;6.65;;;4.03;;
70126;SDS011;57491;42.694;23.314;2022-10-26T11:56:50;5.07;;;3.92;;
70126;SDS011;57491;42.694;23.314;2022-10-26T11:59:20;5.15;;;3.60;;
70126;SDS011;57491;42.694;23.314;2022-10-26T12:01:52;6.75;;;3.63;;
70126;SDS011;57491;42.694;23.314;2022-10-26T12:04:24;5.20;;;3.42;;
70126;SDS011;57491;42.694;23.314;2022-10-26T12:06:57;5.03;;;3.50;;
70126;SDS011;57491;42.694;23.314;2022-10-26T12:09:29;4.97;;;4.05;;
70126;SDS011;57491;42.694;23.314;2022-10-26T12:12:03;6.00;;;3.80;;
70126;SDS011;57491;42.694;23.314;2022-10-26T12:14:36;5.18;;;4.03;;
70126;SDS011;57491;42.694;23.314;2022-10-26T12:17:10;15.95;;;5.03;;
70126;SDS011;57491;42.694;23.314;2022-10-26T12:19:45;5.07;;;3.67;;
70126;SDS011;57491;42.694;23.314;2022-10-26T12:22:18;5.90;;;3.55;;
70126;SDS011;57491;42.694;23.314;2022-10-26T12:25:05;4.82;;;3.80;;
70126;SDS011;57491;42.694;23.314;2022-10-26T12:27:48;15.77;;;4.57;;
70126;SDS011;57491;42.694;23.314;2022-10-26T12:30:27;4.20;;;3.53;;
70126;SDS011;57491;42.694;23.314;2022-10-26T12:32:57;4.70;;;2.90;;
70126;SDS011;57491;42.694;23.314;2022-10-26T12:35:33;9.70;;;3.38;;
70126;SDS011;57491;42.694;23.314;2022-10-26T12:41:21;6.40;;;3.58;;
70126;SDS011;57491;42.694;23.314;2022-10-26T12:43:53;2.88;;;2.70;;
70126;SDS011;57491;42.694;23.314;2022-10-26T12:52:34;10.55;;;2.70;;
70126;SDS011;57491;42.694;23.314;2022-10-26T12:55:16;2.45;;;2.22;;
70126;SDS011;57491;42.694;23.314;2022-10-26T13:00:54;4.53;;;2.60;;
70126;SDS011;57491;42.694;23.314;2022-10-26T13:03:46;5.13;;;2.80;;
70126;SDS011;57491;42.694;23.314;2022-10-26T13:06:29;5.07;;;3.60;;
70126;SDS011;57491;42.694;23.314;2022-10-26T13:09:11;5.60;;;3.30;;
70126;SDS011;57491;42.694;23.314;2022-10-26T13:11:42;4.93;;;3.35;;
70126;SDS011;57491;42.694;23.314;2022-10-26T13:14:20;5.05;;;3.03;;
70126;SDS011;57491;42.694;23.314;2022-10-26T13:16:50;3.47;;;3.17;;
70126;SDS011;57491;42.694;23.314;2022-10-26T13:19:22;6.80;;;2.60;;
70126;SDS011;57491;42.694;23.314;2022-10-26T13:21:51;3.53;;;2.53;;
70126;SDS011;57491;42.694;23.314;2022-10-26T13:24:22;3.78;;;2.40;;
70126;SDS011;57491;42.694;23.314;2022-10-26T13:33:01;4.82;;;1.95;;
70126;SDS011;57491;42.694;23.314;2022-10-26T13:35:29;4.07;;;1.98;;
70126;SDS011;57491;42.694;23.314;2022-10-26T13:37:57;9.55;;;2.10;;
70126;SDS011;57491;42.694;23.314;2022-10-26T13:40:34;3.05;;;1.58;;
70126;SDS011;57491;42.694;23.314;2022-10-26T13:43:03;7.97;;;1.92;;
70126;SDS011;57491;42.694;23.314;2022-10-26T13:45:33;5.28;;;1.50;;
70126;SDS011;57491;42.694;23.314;2022-10-26T13:48:05;7.32;;;1.88;;
70126;SDS011;57491;42.694;23.314;2022-10-26T13:50:41;4.30;;;1.60;;
70126;SDS011;57491;42.694;23.314;2022-10-26T13:53:14;2.10;;;1.00;;
70126;SDS011;57491;42.694;23.314;2022-10-26T13:55:49;2.72;;;1.20;;
70126;SDS011;57491;42.694;23.314;2022-10-26T13:58:19;2.92;;;1.23;;
70126;SDS011;57491;42.694;23.314;2022-10-26T14:01:00;5.18;;;1.30;;
70126;SDS011;57491;42.694;23.314;2022-10-26T14:03:29;7.40;;;1.95;;
70126;SDS011;57491;42.694;23.314;2022-10-26T14:05:57;5.07;;;1.30;;
70126;SDS011;57491;42.694;23.314;2022-10-26T14:08:24;6.05;;;1.50;;
70126;SDS011;57491;42.694;23.314;2022-10-26T14:13:22;6.75;;;1.63;;
70126;SDS011;57491;42.694;23.314;2022-10-26T14:15:50;5.70;;;1.83;;
70126;SDS011;57491;42.694;23.314;2022-10-26T14:18:20;4.57;;;1.48;;
70126;SDS011;57491;42.694;23.314;2022-10-26T14:20:53;4.80;;;2.03;;
70126;SDS011;57491;42.694;23.314;2022-10-26T14:23:26;2.17;;;1.70;;
70126;SDS011;57491;42.694;23.314;2022-10-26T14:25:56;7.30;;;2.00;;
70126;SDS011;57491;42.694;23.314;2022-10-26T14:28:23;7.00;;;1.48;;
70126;SDS011;57491;42.694;23.314;2022-10-26T14:30:52;6.70;;;1.90;;
70126;SDS011;57491;42.694;23.314;2022-10-26T14:35:51;4.22;;;2.00;;
70126;SDS011;57491;42.694;23.314;2022-10-26T14:38:20;5.65;;;2.40;;
70126;SDS011;57491;42.694;23.314;2022-10-26T14:40:50;3.85;;;1.73;;
70126;SDS011;57491;42.694;23.314;2022-10-26T14:45:49;3.10;;;2.10;;
70126;SDS011;57491;42.694;23.314;2022-10-26T14:48:19;4.57;;;1.70;;
70126;SDS011;57491;42.694;23.314;2022-10-26T14:50:58;7.35;;;2.25;;
70126;SDS011;57491;42.694;23.314;2022-10-26T14:53:31;3.03;;;1.60;;
70126;SDS011;57491;42.694;23.314;2022-10-26T14:56:03;5.88;;;2.33;;
70126;SDS011;57491;42.694;23.314;2022-10-26T14:58:43;3.78;;;2.40;;
70126;SDS011;57491;42.694;23.314;2022-10-26T15:01:14;8.77;;;1.90;;
70126;SDS011;57491;42.694;23.314;2022-10-26T15:03:55;4.82;;;1.75;;
70126;SDS011;57491;42.694;23.314;2022-10-26T15:09:31;3.70;;;2.22;;
70126;SDS011;57491;42.694;23.314;2022-10-26T15:12:04;5.60;;;2.20;;
70126;SDS011;57491;42.694;23.314;2022-10-26T15:14:36;5.20;;;2.20;;
70126;SDS011;57491;42.694;23.314;2022-10-26T15:17:12;12.82;;;3.67;;
70126;SDS011;57491;42.694;23.314;2022-10-26T15:19:48;17.60;;;6.70;;
70126;SDS011;57491;42.694;23.314;2022-10-26T15:22:20;11.60;;;3.60;;
70126;SDS011;57491;42.694;23.314;2022-10-26T15:24:49;10.15;;;3.45;;
70126;SDS011;57491;42.694;23.314;2022-10-26T15:27:18;6.85;;;2.78;;
70126;SDS011;57491;42.694;23.314;2022-10-26T15:29:51;14.50;;;3.33;;
70126;SDS011;57491;42.694;23.314;2022-10-26T15:32:33;14.45;;;4.25;;
70126;SDS011;57491;42.694;23.314;2022-10-26T15:37:51;21.90;;;4.20;;
70126;SDS011;57491;42.694;23.314;2022-10-26T15:40:21;15.18;;;4.47;;
70126;SDS011;57491;42.694;23.314;2022-10-26T15:42:49;13.20;;;4.10;;
70126;SDS011;57491;42.694;23.314;2022-10-26T15:45:20;13.40;;;4.18;;
70126;SDS011;57491;42.694;23.314;2022-10-26T15:47:48;12.43;;;4.43;;
70126;SDS011;57491;42.694;23.314;2022-10-26T15:50:18;7.82;;;3.45;;
70126;SDS011;57491;42.694;23.314;2022-10-26T15:52:46;12.25;;;4.70;;
70126;SDS011;57491;42.694;23.314;2022-10-26T15:55:14;11.13;;;4.63;;
70126;SDS011;57491;42.694;23.314;2022-10-26T15:57:42;17.85;;;5.18;;